ULMM

Murmansk Airport

Murmansk, Russian Federation
TAF ULMM 170151Z 1703/1803 07003MPS 6000 BKN011 TEMPO 1703/1716 03003MPS 3100 -SHSN BR BKN011CB TEMPO 1716/1803 VRB01MPS 3100 -SG BR BKN004 OVC011
Issued Valid From Valid To
Jan-17 @ 01:51 UTC
(4 hours ago)
Jan-17 @ 03:00 UTC
(3 hours ago)
Jan-18 @ 03:00 UTC
(in 21 hours)
Jan-17 @ 03:00 to Jan-18 @ 03:00
TAF ULMM 170151Z 1703/1803 07003MPS 6000 BKN011
Wind Visibility Clouds
70° at 6 knots 6,003 meters
  • Broken at 1,100' AGL
Temporary Jan-17 @ 03:00 to Jan-17 @ 16:00
TEMPO 1703/1716 03003MPS 3100 -SHSN BR BKN011CB
Wind Visibility Clouds Conditions
30° at 6 knots 3,106 meters
  • Broken at 1,100' AGL
  • Light Snow
  • Mist
Temporary Jan-17 @ 16:00 to Jan-18 @ 03:00
TEMPO 1716/1803 VRB01MPS 3100 -SG BR BKN004 OVC011
Wind Visibility Clouds Conditions
Variable at 2 knots 3,106 meters
  • Broken at 400' AGL
  • Overcast at 1,100' AGL
  • Light Snow grains
  • Mist
TAF ULMM 170151Z 1703/1803 07003MPS 6000 BKN011 TEMPO 1703/1716 03003MPS 3100 -SHSN BR BKN011CB TEMPO 1716/1803 VRB01MPS 3100 -SG BR BKN004 OVC011
Issued Jan-17 @ 01:51 UTC
(4 hours ago)
Valid From Jan-17 @ 03:00 UTC
(3 hours ago)
Valid To Jan-18 @ 03:00 UTC
(in 21 hours)
Jan-17 @ 03:00 - Jan-18 @ 03:00
Wind Visibility
70° at 6 knots 6,003 meters
Clouds
  • Broken at 1,100' AGL
Temporary Jan-17 @ 03:00 - Jan-17 @ 16:00
Wind Visibility
30° at 6 knots 3,106 meters
Clouds
  • Broken at 1,100' AGL
Conditions
  • Light Snow
  • Mist
Temporary Jan-17 @ 16:00 - Jan-18 @ 03:00
Wind Visibility
Variable at 2 knots 3,106 meters
Clouds
  • Broken at 400' AGL
  • Overcast at 1,100' AGL
Conditions
  • Light Snow grains
  • Mist